createdAt,value
2016-09-07T00:00:20.449Z,743.39
2016-09-07T00:01:20.447Z,743.43
2016-09-07T00:02:20.431Z,743.35
2016-09-07T00:03:20.419Z,743.29
2016-09-07T00:04:20.404Z,743.29
2016-09-07T00:05:20.393Z,743.31
2016-09-07T00:06:20.379Z,743.3
2016-09-07T00:07:20.366Z,743.29
2016-09-07T00:08:20.353Z,743.32
2016-09-07T00:09:20.334Z,743.29
2016-09-07T00:10:20.319Z,743.21
2016-09-07T00:11:20.307Z,743.2
2016-09-07T00:12:20.295Z,743.21
2016-09-07T00:13:20.288Z,743.11
2016-09-07T00:14:20.269Z,743.16
2016-09-07T00:15:20.255Z,743.13
2016-09-07T00:16:20.243Z,743.07
2016-09-07T00:17:20.237Z,743.14
2016-09-07T00:18:20.225Z,743.15
2016-09-07T00:19:20.206Z,743.17
2016-09-07T00:20:20.192Z,743.16
2016-09-07T00:21:20.180Z,743.15
2016-09-07T00:22:20.166Z,743.17
2016-09-07T00:23:20.155Z,743.15
2016-09-07T00:24:20.148Z,743.19
2016-09-07T00:25:20.136Z,743.2
2016-09-07T00:26:20.123Z,743.17
2016-09-07T00:27:20.112Z,743.16
2016-09-07T00:28:20.092Z,743.18
2016-09-07T00:29:20.078Z,743.18
2016-09-07T00:30:20.066Z,743.19
2016-09-07T00:31:20.061Z,743.18
2016-09-07T00:32:20.048Z,743.18
2016-09-07T00:33:20.029Z,743.18
2016-09-07T00:34:20.017Z,743.21
2016-09-07T00:35:20.013Z,743.08
2016-09-07T00:36:19.993Z,743.08
2016-09-07T00:37:19.982Z,743.09
2016-09-07T00:38:19.969Z,743.12
2016-09-07T00:39:19.964Z,743.02
2016-09-07T00:40:19.945Z,743.08
2016-09-07T00:41:19.940Z,743.09
2016-09-07T00:42:19.922Z,743.09
2016-09-07T00:43:19.917Z,743.05
2016-09-07T00:44:19.900Z,743.17
2016-09-07T00:45:19.894Z,743.08
2016-09-07T00:46:19.882Z,743.08
2016-09-07T00:47:19.864Z,743.03
2016-09-07T00:48:19.859Z,743
2016-09-07T00:49:19.842Z,742.94
2016-09-07T00:50:19.835Z,743.02
2016-09-07T00:51:19.828Z,743.02
2016-09-07T00:52:19.806Z,743.04
2016-09-07T00:53:19.796Z,743.06
2016-09-07T00:54:19.784Z,743.07
2016-09-07T00:55:19.784Z,743.05
2016-09-07T00:56:19.760Z,743.05
2016-09-07T00:57:19.749Z,743.04
2016-09-07T00:58:19.738Z,743.03
2016-09-07T00:59:19.727Z,743.03
2016-09-07T01:00:19.723Z,743
2016-09-07T01:01:19.712Z,743.01
2016-09-07T01:02:19.693Z,742.95
2016-09-07T01:03:19.688Z,742.93
2016-09-07T01:04:19.679Z,742.94
2016-09-07T01:05:19.666Z,742.94
2016-09-07T01:06:19.649Z,742.91
2016-09-07T01:07:19.647Z,742.87
2016-09-07T01:08:19.633Z,742.81
2016-09-07T01:09:19.625Z,742.79
2016-09-07T01:10:19.606Z,742.81
2016-09-07T01:11:19.595Z,742.75
2016-09-07T01:12:19.589Z,742.74
2016-09-07T01:13:19.572Z,742.7
2016-09-07T01:14:19.568Z,742.72
2016-09-07T01:15:19.557Z,742.7
2016-09-07T01:16:19.546Z,742.66
2016-09-07T01:17:19.535Z,742.76
2016-09-07T01:18:19.518Z,742.88
2016-09-07T01:19:19.507Z,742.84
2016-09-07T01:20:19.503Z,742.83
2016-09-07T01:21:19.493Z,742.8
2016-09-07T01:22:19.475Z,742.77
2016-09-07T01:23:19.464Z,742.81
2016-09-07T01:24:19.453Z,742.74
2016-09-07T01:25:19.456Z,742.73
2016-09-07T01:26:19.432Z,742.73
2016-09-07T01:27:19.421Z,742.61
2016-09-07T01:28:19.411Z,742.69
2016-09-07T01:29:19.406Z,742.65
2016-09-07T01:30:19.396Z,742.75
2016-09-07T01:31:19.386Z,742.72
2016-09-07T01:32:19.375Z,742.83
2016-09-07T01:33:19.366Z,742.78
2016-09-07T01:34:19.346Z,742.79
2016-09-07T01:35:19.338Z,742.8
2016-09-07T01:36:19.333Z,742.72
2016-09-07T01:37:19.324Z,742.53
2016-09-07T01:38:19.306Z,742.74
2016-09-07T01:39:19.302Z,742.81
2016-09-07T01:40:19.293Z,742.82
2016-09-07T01:41:19.282Z,742.81
2016-09-07T01:42:19.265Z,742.86
2016-09-07T01:43:19.255Z,742.79
2016-09-07T01:44:19.252Z,742.77
2016-09-07T01:45:19.236Z,742.82
2016-09-07T01:46:19.225Z,742.72
2016-09-07T01:47:19.216Z,742.51
2016-09-07T01:48:19.206Z,742.81
2016-09-07T01:49:19.202Z,742.69
2016-09-07T01:50:19.192Z,742.54
2016-09-07T01:51:19.177Z,742.75
2016-09-07T01:52:19.173Z,742.63
2016-09-07T01:53:19.155Z,742.66
2016-09-07T01:54:19.158Z,742.7
2016-09-07T01:55:19.144Z,742.57
2016-09-07T01:56:19.133Z,742.68
2016-09-07T01:57:19.123Z,742.73
2016-09-07T01:58:19.114Z,742.72
2016-09-07T01:59:19.105Z,742.73
2016-09-07T02:00:19.095Z,742.68
2016-09-07T02:01:19.086Z,742.68
2016-09-07T02:02:19.079Z,742.66
2016-09-07T02:03:19.066Z,742.65
2016-09-07T02:04:19.057Z,742.62
2016-09-07T02:05:19.048Z,742.71
2016-09-07T02:06:19.031Z,742.63
2016-09-07T02:07:19.020Z,742.62
2016-09-07T02:08:19.012Z,742.64
2016-09-07T02:09:19.003Z,742.66
2016-09-07T02:10:19.002Z,742.65
2016-09-07T02:11:18.991Z,742.63
2016-09-07T02:12:18.982Z,742.65
2016-09-07T02:13:18.966Z,742.59
2016-09-07T02:14:18.962Z,742.61
2016-09-07T02:15:18.955Z,742.62
2016-09-07T02:16:18.939Z,742.63
2016-09-07T02:17:18.936Z,742.6
2016-09-07T02:18:18.926Z,742.63
2016-09-07T02:19:18.909Z,742.65
2016-09-07T02:20:18.902Z,742.7
2016-09-07T02:21:18.892Z,742.57
2016-09-07T02:22:18.890Z,742.62
2016-09-07T02:23:18.874Z,742.62
2016-09-07T02:24:18.871Z,742.63
2016-09-07T02:25:18.862Z,742.65
2016-09-07T02:26:18.847Z,742.61
2016-09-07T02:27:18.844Z,742.59
2016-09-07T02:28:18.835Z,742.58
2016-09-07T02:29:18.820Z,742.61
2016-09-07T02:30:18.810Z,742.54
2016-09-07T02:31:18.809Z,742.49
2016-09-07T02:32:18.793Z,742.54
2016-09-07T02:33:18.783Z,742.48
2016-09-07T02:34:18.775Z,742.5
2016-09-07T02:35:18.774Z,742.52
2016-09-07T02:36:18.757Z,742.49
2016-09-07T02:37:18.756Z,742.49
2016-09-07T02:38:18.746Z,742.57
2016-09-07T02:39:18.732Z,742.53
2016-09-07T02:40:18.722Z,742.56
2016-09-07T02:41:18.715Z,742.51
2016-09-07T02:42:18.711Z,742.52
2016-09-07T02:43:18.701Z,742.53
2016-09-07T02:44:18.686Z,742.54
2016-09-07T02:45:18.685Z,742.46
2016-09-07T02:46:18.668Z,742.44
2016-09-07T02:47:18.666Z,742.53
2016-09-07T02:48:18.650Z,742.57
2016-09-07T02:49:18.642Z,742.48
2016-09-07T02:50:18.640Z,742.44
2016-09-07T02:51:18.631Z,742.54
2016-09-07T02:52:18.616Z,742.39
2016-09-07T02:53:18.614Z,742.4
2016-09-07T02:54:18.598Z,742.49
2016-09-07T02:55:18.596Z,742.57
2016-09-07T02:56:18.579Z,742.58
2016-09-07T02:57:18.582Z,742.43
2016-09-07T02:58:18.569Z,742.44
2016-09-07T02:59:18.555Z,742.52
2016-09-07T03:00:18.545Z,742.48
2016-09-07T03:01:18.545Z,742.46
2016-09-07T03:02:18.534Z,742.41
2016-09-07T03:03:18.520Z,742.41
2016-09-07T03:04:18.511Z,742.5
2016-09-07T03:05:18.503Z,742.42
2016-09-07T03:06:18.645Z,742.39
2016-09-07T03:07:18.485Z,742.39
2016-09-07T03:08:18.478Z,742.39
2016-09-07T03:09:18.474Z,742.47
2016-09-07T03:10:18.459Z,742.43
2016-09-07T03:11:18.451Z,742.4
2016-09-07T03:12:18.442Z,742.42
2016-09-07T03:13:18.433Z,742.37
2016-09-07T03:14:18.431Z,742.42
2016-09-07T03:15:18.418Z,742.45
2016-09-07T03:16:18.406Z,742.33
2016-09-07T03:17:18.405Z,742.3
2016-09-07T03:18:18.397Z,742.46
2016-09-07T03:19:18.388Z,742.46
2016-09-07T03:20:18.384Z,742.42
2016-09-07T03:21:18.370Z,742.5
2016-09-07T03:22:18.354Z,742.24
2016-09-07T03:23:18.345Z,742.46
2016-09-07T03:24:18.344Z,742.4
2016-09-07T03:25:18.334Z,742.15
2016-09-07T03:26:18.326Z,742.41
2016-09-07T03:27:18.310Z,742.19
2016-09-07T03:28:18.301Z,742.18
2016-09-07T03:29:18.291Z,742.23
2016-09-07T03:30:18.282Z,742.49
2016-09-07T03:31:18.274Z,742.38
2016-09-07T03:32:18.264Z,742.57
2016-09-07T03:33:18.262Z,742.53
2016-09-07T03:34:18.253Z,742.29
2016-09-07T03:35:18.237Z,742.26
2016-09-07T03:36:18.227Z,742.33
2016-09-07T03:37:18.225Z,742.42
2016-09-07T03:38:18.215Z,742.48
2016-09-07T03:39:18.206Z,742.17
2016-09-07T03:40:18.198Z,742.46
2016-09-07T03:41:18.182Z,742
2016-09-07T03:42:18.179Z,742.25
2016-09-07T03:43:18.163Z,742.32
2016-09-07T03:44:18.162Z,742.47
2016-09-07T03:45:18.147Z,742.41
2016-09-07T03:46:18.136Z,742.16
2016-09-07T03:47:18.135Z,741.7
2016-09-07T03:48:18.118Z,742.38
2016-09-07T03:49:18.109Z,742.44
2016-09-07T03:50:18.100Z,742.21
2016-09-07T03:51:18.091Z,742.45
2016-09-07T03:52:18.089Z,742.48
2016-09-07T03:53:18.073Z,742.32
2016-09-07T03:54:18.065Z,742.41
2016-09-07T03:55:18.063Z,742.4
2016-09-07T03:56:18.047Z,742.05
2016-09-07T03:57:18.045Z,742.44
2016-09-07T03:58:18.037Z,742.46
2016-09-07T03:59:18.027Z,742.32
2016-09-07T04:00:18.018Z,742.31
2016-09-07T04:01:18.010Z,742.67
2016-09-07T04:02:18.002Z,742.63
2016-09-07T04:03:17.986Z,742.44
2016-09-07T04:04:17.975Z,741.81
2016-09-07T04:05:17.975Z,742.71
2016-09-07T04:06:17.966Z,742.6
2016-09-07T04:07:17.957Z,742.6
2016-09-07T04:08:17.941Z,742.52
2016-09-07T04:09:17.940Z,742.4
2016-09-07T04:10:17.924Z,742.6
2016-09-07T04:11:17.915Z,742.57
2016-09-07T04:12:17.907Z,742.44
2016-09-07T04:13:17.905Z,742.41
2016-09-07T04:14:17.897Z,742.46
2016-09-07T04:15:17.895Z,742.3
2016-09-07T04:16:17.879Z,742.53
2016-09-07T04:17:17.872Z,742.54
2016-09-07T04:18:17.855Z,742.44
2016-09-07T04:19:17.846Z,742.45
2016-09-07T04:20:17.844Z,742.66
2016-09-07T04:21:17.836Z,742.57
2016-09-07T04:22:17.827Z,742.71
2016-09-07T04:23:17.820Z,742.44
2016-09-07T04:24:17.810Z,742.26
2016-09-07T04:25:17.803Z,742.16
2016-09-07T04:26:17.801Z,742.68
2016-09-07T04:27:17.779Z,742.54
2016-09-07T04:28:17.770Z,742.53
2016-09-07T04:29:17.768Z,742.51
2016-09-07T04:30:17.752Z,742.66
2016-09-07T04:31:17.744Z,742.55
2016-09-07T04:32:17.737Z,742.62
2016-09-07T04:33:17.727Z,742.79
2016-09-07T04:34:17.719Z,742.61
2016-09-07T04:35:17.711Z,742.45
2016-09-07T04:36:17.703Z,742.67
2016-09-07T04:37:17.692Z,742.47
2016-09-07T04:38:17.692Z,742.73
2016-09-07T04:39:17.684Z,742.83
2016-09-07T04:40:17.675Z,742.63
2016-09-07T04:41:17.667Z,742.68
2016-09-07T04:42:17.652Z,742.7
2016-09-07T04:43:17.651Z,742.58
2016-09-07T04:44:17.641Z,742.57
2016-09-07T04:45:17.633Z,742.61
2016-09-07T04:46:17.625Z,742.46
2016-09-07T04:47:17.610Z,742.49
2016-09-07T04:48:17.608Z,742.52
2016-09-07T04:49:17.594Z,742.5
2016-09-07T04:50:17.592Z,742.71
2016-09-07T04:51:17.577Z,742.66
2016-09-07T04:52:17.574Z,742.64
2016-09-07T04:53:17.567Z,742.56
2016-09-07T04:54:17.558Z,742.66
2016-09-07T04:55:17.549Z,742.78
2016-09-07T04:56:17.533Z,742.62
2016-09-07T04:57:17.525Z,742.74
2016-09-07T04:58:17.517Z,742.62
2016-09-07T04:59:17.515Z,742.74
2016-09-07T05:00:17.506Z,742.6
2016-09-07T05:01:17.492Z,742.42
2016-09-07T05:02:17.482Z,742.57
2016-09-07T05:03:17.481Z,742.67
2016-09-07T05:04:17.464Z,742.46
2016-09-07T05:05:17.457Z,742.67
2016-09-07T05:06:17.447Z,742.66
2016-09-07T05:07:17.442Z,742.54
2016-09-07T05:08:17.430Z,742.49
2016-09-07T05:09:17.420Z,742.57
2016-09-07T05:10:17.418Z,742.52
2016-09-07T05:11:17.402Z,742.5
2016-09-07T05:12:17.402Z,742.79
2016-09-07T05:13:17.392Z,742.66
2016-09-07T05:14:17.383Z,742.7
2016-09-07T05:15:17.376Z,742.62
2016-09-07T05:16:17.360Z,742.55
2016-09-07T05:17:17.357Z,742.66
2016-09-07T05:18:17.349Z,742.82
2016-09-07T05:19:17.333Z,742.8
2016-09-07T05:20:17.332Z,742.7
2016-09-07T05:21:17.318Z,742.64
2016-09-07T05:22:17.316Z,742.59
2016-09-07T05:23:17.308Z,742.57
2016-09-07T05:24:17.299Z,742.48
2016-09-07T05:25:17.286Z,742.88
2016-09-07T05:26:17.276Z,742.81
2016-09-07T05:27:17.276Z,742.83
2016-09-07T05:28:17.266Z,742.44
2016-09-07T05:29:17.260Z,742.82
2016-09-07T05:30:17.251Z,742.39
2016-09-07T05:31:17.243Z,742.85
2016-09-07T05:32:17.228Z,742.81
2016-09-07T05:33:17.227Z,742.75
2016-09-07T05:34:17.213Z,742.51
2016-09-07T05:35:17.205Z,742.6
2016-09-07T05:36:17.197Z,742.78
2016-09-07T05:37:17.189Z,742.47
2016-09-07T05:38:17.182Z,742.65
2016-09-07T05:39:17.178Z,742.76
2016-09-07T05:40:17.171Z,742.55
2016-09-07T05:41:17.156Z,742.7
2016-09-07T05:42:17.156Z,742.71
2016-09-07T05:43:17.140Z,742.81
2016-09-07T05:44:17.139Z,742.73
2016-09-07T05:45:17.131Z,742.75
2016-09-07T05:46:17.117Z,742.62
2016-09-07T05:47:17.107Z,742.61
2016-09-07T05:48:17.101Z,742.6
2016-09-07T05:49:17.093Z,742.53
2016-09-07T05:50:17.082Z,742.68
2016-09-07T05:51:17.074Z,742.86
2016-09-07T05:52:17.074Z,742.76
2016-09-07T05:53:17.058Z,742.81
2016-09-07T05:54:17.051Z,742.65
2016-09-07T05:55:17.050Z,742.8
2016-09-07T05:56:17.035Z,742.8
2016-09-07T05:57:17.026Z,742.66
2016-09-07T05:58:17.018Z,742.67
2016-09-07T05:59:17.018Z,742.67
2016-09-07T06:00:17.004Z,742.89
2016-09-07T06:01:16.995Z,742.87
2016-09-07T06:02:16.993Z,742.96
2016-09-07T06:03:16.977Z,742.87
2016-09-07T06:04:16.976Z,742.86
2016-09-07T06:05:16.969Z,742.9
2016-09-07T06:06:16.955Z,742.65
2016-09-07T06:07:16.946Z,742.88
2016-09-07T06:08:16.937Z,742.95
2016-09-07T06:09:16.931Z,742.96
2016-09-07T06:10:16.929Z,742.98
2016-09-07T06:11:16.916Z,742.99
2016-09-07T06:12:16.914Z,742.83
2016-09-07T06:13:16.900Z,742.93
2016-09-07T06:14:16.898Z,743
2016-09-07T06:15:16.890Z,743
2016-09-07T06:16:16.881Z,742.85
2016-09-07T06:17:16.869Z,742.98
2016-09-07T06:18:16.860Z,742.98
2016-09-07T06:19:16.858Z,743.01
2016-09-07T06:20:16.850Z,743.02
2016-09-07T06:21:16.843Z,743.02
2016-09-07T06:22:16.828Z,742.96
2016-09-07T06:23:16.820Z,742.73
2016-09-07T06:24:16.820Z,743.03
2016-09-07T06:25:16.807Z,742.95
2016-09-07T06:26:16.798Z,742.98
2016-09-07T06:27:16.790Z,742.87
2016-09-07T06:28:16.791Z,742.93
2016-09-07T06:29:16.783Z,743.05
2016-09-07T06:30:16.769Z,742.96
2016-09-07T06:31:16.761Z,742.82
2016-09-07T06:32:16.761Z,742.97
2016-09-07T06:33:16.754Z,742.98
2016-09-07T06:34:16.745Z,742.89
2016-09-07T06:35:16.733Z,742.87
2016-09-07T06:36:16.733Z,743.07
2016-09-07T06:37:16.718Z,743.25
2016-09-07T06:38:16.718Z,743.1
2016-09-07T06:39:16.704Z,743.09
2016-09-07T06:40:16.698Z,743.12
2016-09-07T06:41:16.697Z,743.12
2016-09-07T06:42:16.684Z,743.1
2016-09-07T06:43:16.684Z,743.05
2016-09-07T06:44:16.669Z,743.06
2016-09-07T06:45:16.663Z,743.13
2016-09-07T06:46:16.657Z,743.09
2016-09-07T06:47:16.657Z,743.14
2016-09-07T06:48:16.649Z,743.1
2016-09-07T06:49:16.635Z,743.15
2016-09-07T06:50:16.630Z,743.19
2016-09-07T06:51:16.624Z,743.04
2016-09-07T06:52:16.622Z,743.21
2016-09-07T06:53:16.616Z,743.2
2016-09-07T06:54:16.609Z,743.27
2016-09-07T06:55:16.596Z,743.28
2016-09-07T06:56:16.597Z,743.21
2016-09-07T06:57:16.586Z,743.25
2016-09-07T06:58:16.585Z,743.19
2016-09-07T06:59:16.580Z,743.17
2016-09-07T07:00:16.572Z,743.22
2016-09-07T07:01:16.560Z,743.19
2016-09-07T07:02:16.553Z,743.22
2016-09-07T07:03:16.546Z,743.25
2016-09-07T07:04:16.547Z,743.12
2016-09-07T07:05:16.541Z,743.26
2016-09-07T07:06:16.528Z,743.18
2016-09-07T07:07:16.528Z,743.29
2016-09-07T07:08:16.516Z,743.27
2016-09-07T07:09:16.509Z,743.19
2016-09-07T07:10:16.510Z,743.21
2016-09-07T07:11:16.504Z,743.25
2016-09-07T07:12:16.498Z,743.16
2016-09-07T07:13:16.484Z,743.24
2016-09-07T07:14:16.485Z,743.24
2016-09-07T07:15:16.474Z,743.23
2016-09-07T07:16:16.478Z,743.28
2016-09-07T07:17:16.468Z,743.27
2016-09-07T07:18:16.456Z,743.15
2016-09-07T07:19:16.458Z,743.28
2016-09-07T07:20:16.445Z,743.23
2016-09-07T07:21:16.439Z,743.32
2016-09-07T07:22:16.433Z,743.39
2016-09-07T07:23:16.428Z,743.32
2016-09-07T07:24:16.424Z,743.43
2016-09-07T07:25:16.417Z,743.36
2016-09-07T07:26:16.411Z,743.33
2016-09-07T07:27:16.412Z,743.35
2016-09-07T07:28:16.406Z,743.46
2016-09-07T07:29:16.394Z,743.29
2016-09-07T07:30:16.399Z,743.34
2016-09-07T07:31:16.383Z,743.33
2016-09-07T07:32:16.376Z,743.23
2016-09-07T07:33:16.378Z,743.37
2016-09-07T07:34:16.372Z,743.23
2016-09-07T07:35:16.366Z,743.2
2016-09-07T07:36:16.352Z,743.18
2016-09-07T07:37:16.354Z,743.24
2016-09-07T07:38:16.348Z,743.23
2016-09-07T07:39:16.335Z,743.36
2016-09-07T07:40:16.328Z,743.36
2016-09-07T07:41:16.339Z,743.42
2016-09-07T07:42:16.317Z,743.37
2016-09-07T07:43:16.309Z,743.2
2016-09-07T07:44:16.303Z,743.43
2016-09-07T07:45:16.297Z,743.46
2016-09-07T07:46:16.292Z,743.42
2016-09-07T07:47:16.290Z,743.41
2016-09-07T07:48:16.285Z,743.37
2016-09-07T07:49:16.271Z,743.41
2016-09-07T07:50:16.273Z,743.44
2016-09-07T07:51:16.260Z,743.53
2016-09-07T07:52:16.256Z,743.44
2016-09-07T07:53:16.257Z,743.35
2016-09-07T07:54:16.243Z,743.36
2016-09-07T07:55:16.238Z,743.36
2016-09-07T07:56:16.231Z,743.52
2016-09-07T07:57:16.225Z,743.47
2016-09-07T07:58:16.219Z,743.46
2016-09-07T07:59:16.237Z,743.43
2016-09-07T08:00:16.209Z,743.34
2016-09-07T08:01:16.203Z,743.51
2016-09-07T08:02:16.198Z,743.44
2016-09-07T08:03:16.200Z,743.53
2016-09-07T08:04:16.194Z,743.53
2016-09-07T08:05:16.187Z,743.65
2016-09-07T08:06:16.175Z,743.57
2016-09-07T08:07:16.320Z,743.66
2016-09-07T08:08:16.171Z,743.66
2016-09-07T08:09:16.166Z,743.57
2016-09-07T08:10:16.161Z,743.59
2016-09-07T08:11:16.156Z,743.71
2016-09-07T08:12:16.149Z,743.71
2016-09-07T08:13:16.146Z,743.7
2016-09-07T08:14:16.135Z,743.72
2016-09-07T08:15:16.137Z,743.71
2016-09-07T08:16:16.126Z,743.67
2016-09-07T08:17:16.127Z,743.6
2016-09-07T08:18:16.124Z,743.59
2016-09-07T08:19:16.120Z,743.6
2016-09-07T08:20:16.114Z,743.57
2016-09-07T08:21:16.110Z,743.65
2016-09-07T08:22:16.099Z,743.56
2016-09-07T08:23:16.101Z,743.65
2016-09-07T08:24:16.095Z,743.68
2016-09-07T08:25:16.092Z,743.72
2016-09-07T08:26:16.087Z,743.71
2016-09-07T08:27:16.075Z,743.67
2016-09-07T08:28:16.071Z,743.63
2016-09-07T08:29:16.066Z,743.7
2016-09-07T08:30:16.062Z,743.72
2016-09-07T08:31:16.067Z,743.67
2016-09-07T08:32:16.055Z,743.67
2016-09-07T08:33:16.057Z,743.75
2016-09-07T08:34:16.046Z,743.71
2016-09-07T08:35:16.049Z,743.67
2016-09-07T08:36:16.047Z,743.67
2016-09-07T08:37:16.043Z,743.75
2016-09-07T08:38:16.032Z,743.76
2016-09-07T08:39:16.028Z,743.79
2016-09-07T08:40:16.032Z,743.75
2016-09-07T08:41:16.027Z,743.75
2016-09-07T08:42:16.017Z,743.82
2016-09-07T08:43:16.021Z,743.81
2016-09-07T08:44:16.019Z,743.8
2016-09-07T08:45:16.007Z,743.78
2016-09-07T08:46:16.012Z,743.82
2016-09-07T08:47:16.009Z,743.8
2016-09-07T08:48:16.007Z,743.78
2016-09-07T08:49:15.996Z,743.75
2016-09-07T08:50:15.993Z,743.74
2016-09-07T08:51:15.998Z,743.73
2016-09-07T08:52:15.987Z,743.72
2016-09-07T08:53:15.992Z,743.79
2016-09-07T08:54:15.989Z,743.82
2016-09-07T08:55:15.987Z,743.8
2016-09-07T08:56:15.978Z,743.83
2016-09-07T08:57:15.982Z,743.8
2016-09-07T08:58:15.973Z,743.78
2016-09-07T08:59:15.978Z,743.75
2016-09-07T09:00:15.969Z,743.74
2016-09-07T09:01:15.965Z,743.79
2016-09-07T09:02:15.965Z,743.75
2016-09-07T09:03:15.968Z,743.74
2016-09-07T09:04:15.960Z,743.72
2016-09-07T09:05:15.964Z,743.72
2016-09-07T09:06:15.954Z,743.72
2016-09-07T09:07:15.959Z,743.67
2016-09-07T09:08:15.956Z,743.69
2016-09-07T09:09:15.954Z,743.73
2016-09-07T09:10:15.951Z,743.7
2016-09-07T09:11:15.948Z,743.69
2016-09-07T09:12:15.940Z,743.7
2016-09-07T09:13:15.943Z,743.69
2016-09-07T09:14:15.935Z,743.66
2016-09-07T09:15:15.938Z,743.64
2016-09-07T09:16:15.937Z,743.68
2016-09-07T09:17:15.927Z,743.69
2016-09-07T09:18:15.931Z,743.68
2016-09-07T09:19:15.929Z,743.7
2016-09-07T09:20:15.928Z,743.69
2016-09-07T09:21:15.917Z,743.75
2016-09-07T09:22:15.915Z,743.72
2016-09-07T09:23:15.913Z,743.73
2016-09-07T09:24:15.910Z,743.73
2016-09-07T09:25:15.908Z,743.75
2016-09-07T09:26:15.912Z,743.79
2016-09-07T09:27:15.910Z,743.76
2016-09-07T09:28:15.907Z,743.74
2016-09-07T09:29:15.904Z,743.77
2016-09-07T09:30:15.902Z,743.78
2016-09-07T09:31:15.899Z,743.8
2016-09-07T09:32:15.897Z,743.8
2016-09-07T09:33:15.887Z,743.75
2016-09-07T09:34:15.893Z,743.81
2016-09-07T09:35:15.890Z,743.79
2016-09-07T09:36:15.888Z,743.83
2016-09-07T09:37:15.880Z,743.85
2016-09-07T09:38:15.877Z,743.83
2016-09-07T09:39:15.875Z,743.82
2016-09-07T09:40:15.872Z,743.82
2016-09-07T09:41:15.877Z,743.87
2016-09-07T09:42:15.868Z,743.88
2016-09-07T09:43:15.873Z,743.85
2016-09-07T09:44:15.871Z,743.89
2016-09-07T09:45:15.862Z,743.87
2016-09-07T09:46:15.860Z,743.85
2016-09-07T09:47:15.865Z,743.84
2016-09-07T09:48:15.863Z,743.85
2016-09-07T09:49:15.861Z,743.82
2016-09-07T09:50:15.853Z,743.82
2016-09-07T09:51:15.857Z,743.79
2016-09-07T09:52:15.856Z,743.83
2016-09-07T09:53:15.854Z,743.84
2016-09-07T09:54:15.846Z,743.8
2016-09-07T09:55:15.850Z,743.84
2016-09-07T09:56:15.849Z,743.82
2016-09-07T09:57:15.847Z,743.84
2016-09-07T09:58:15.843Z,743.84
2016-09-07T09:59:15.835Z,743.86
2016-09-07T10:00:15.840Z,743.85
2016-09-07T10:01:15.832Z,743.79
2016-09-07T10:02:15.828Z,743.83
2016-09-07T10:03:15.827Z,743.8
2016-09-07T10:04:15.832Z,743.83
2016-09-07T10:05:15.823Z,743.78
2016-09-07T10:06:15.820Z,743.76
2016-09-07T10:07:15.826Z,743.75
2016-09-07T10:08:15.824Z,743.73
2016-09-07T10:09:15.814Z,743.8
2016-09-07T10:10:15.820Z,743.73
2016-09-07T10:11:15.818Z,743.76
2016-09-07T10:12:15.811Z,743.73
2016-09-07T10:13:15.808Z,743.8
2016-09-07T10:14:15.807Z,743.8
2016-09-07T10:15:15.805Z,743.83
2016-09-07T10:16:15.801Z,743.75
2016-09-07T10:17:15.801Z,743.72
2016-09-07T10:18:15.797Z,743.74
2016-09-07T10:19:15.797Z,743.73
2016-09-07T10:20:15.799Z,743.73
2016-09-07T10:21:15.799Z,743.75
2016-09-07T10:22:15.788Z,743.76
2016-09-07T10:23:15.790Z,743.78
2016-09-07T10:24:15.787Z,743.7
2016-09-07T10:25:15.783Z,743.74
2016-09-07T10:26:15.787Z,743.76
2016-09-07T10:27:15.778Z,743.76
2016-09-07T10:28:15.782Z,743.74
2016-09-07T10:29:15.780Z,743.71
2016-09-07T10:30:15.771Z,743.73
2016-09-07T10:31:15.770Z,743.69
2016-09-07T10:32:15.774Z,743.7
2016-09-07T10:33:15.772Z,743.72
2016-09-07T10:34:15.764Z,743.73
2016-09-07T10:35:15.768Z,743.74
2016-09-07T10:36:15.766Z,743.72
2016-09-07T10:37:15.757Z,743.7
2016-09-07T10:38:15.755Z,743.65
2016-09-07T10:39:15.759Z,743.67
2016-09-07T10:40:15.752Z,743.65
2016-09-07T10:41:15.757Z,743.68
2016-09-07T10:42:15.748Z,743.7
2016-09-07T10:43:15.753Z,743.66
2016-09-07T10:44:15.745Z,743.64
2016-09-07T10:45:15.742Z,743.64
2016-09-07T10:46:15.747Z,743.57
2016-09-07T10:47:15.738Z,743.63
2016-09-07T10:48:15.737Z,743.64
2016-09-07T10:49:15.742Z,743.61
2016-09-07T10:50:15.751Z,743.58
2016-09-07T10:51:15.732Z,743.58
2016-09-07T10:52:15.738Z,743.63
2016-09-07T10:53:15.735Z,743.61
2016-09-07T10:54:15.733Z,743.62
2016-09-07T10:55:15.725Z,743.59
2016-09-07T10:56:15.730Z,743.58
2016-09-07T10:57:15.728Z,743.62
2016-09-07T10:58:15.719Z,743.64
2016-09-07T10:59:15.726Z,743.59
2016-09-07T11:00:15.726Z,743.64
2016-09-07T11:01:15.713Z,743.6
2016-09-07T11:02:15.718Z,743.6
2016-09-07T11:03:15.709Z,743.6
2016-09-07T11:04:15.715Z,743.64
2016-09-07T11:05:15.706Z,743.58
2016-09-07T11:06:15.711Z,743.65
2016-09-07T11:07:15.703Z,743.6
2016-09-07T11:08:15.699Z,743.63
2016-09-07T11:09:15.704Z,743.63
2016-09-07T11:10:15.697Z,743.59
2016-09-07T11:11:15.694Z,743.67
2016-09-07T11:12:15.698Z,743.71
2016-09-07T11:13:15.695Z,743.67
2016-09-07T11:14:15.687Z,743.67
2016-09-07T11:15:15.682Z,743.66
2016-09-07T11:16:15.686Z,743.65
2016-09-07T11:17:15.677Z,743.64
2016-09-07T11:18:15.681Z,743.66
2016-09-07T11:19:15.678Z,743.68
2016-09-07T11:20:15.668Z,743.65
2016-09-07T11:21:15.665Z,743.68
2016-09-07T11:22:15.668Z,743.7
2016-09-07T11:23:15.666Z,743.74
2016-09-07T11:24:15.663Z,743.72
2016-09-07T11:25:15.654Z,743.72
2016-09-07T11:26:15.649Z,743.7
2016-09-07T11:27:15.645Z,743.71
2016-09-07T11:28:15.650Z,743.74
2016-09-07T11:29:15.648Z,743.71
2016-09-07T11:30:15.638Z,743.71
2016-09-07T11:31:15.634Z,743.69
2016-09-07T11:32:15.637Z,743.7
2016-09-07T11:33:15.627Z,743.74
2016-09-07T11:34:15.623Z,743.75
2016-09-07T11:35:15.620Z,743.71
2016-09-07T11:36:15.623Z,743.7
2016-09-07T11:37:15.619Z,743.74
2016-09-07T11:38:15.616Z,743.73
2016-09-07T11:39:15.613Z,743.71
2016-09-07T11:40:15.610Z,743.68
2016-09-07T11:41:15.599Z,743.7
2016-09-07T11:42:15.602Z,743.73
2016-09-07T11:43:15.599Z,743.73
2016-09-07T11:44:15.588Z,743.7
2016-09-07T11:45:15.586Z,743.7
2016-09-07T11:46:15.589Z,743.7
2016-09-07T11:47:15.578Z,743.72
2016-09-07T11:48:15.573Z,743.69
2016-09-07T11:49:15.571Z,743.7
2016-09-07T11:50:15.568Z,743.69
2016-09-07T11:51:15.565Z,743.66
2016-09-07T11:52:15.568Z,743.67
2016-09-07T11:53:15.565Z,743.63
2016-09-07T11:54:15.556Z,743.64
2016-09-07T11:55:15.558Z,743.63
2016-09-07T11:56:15.555Z,743.64
2016-09-07T11:57:15.545Z,743.64
2016-09-07T11:58:15.550Z,743.62
2016-09-07T11:59:15.544Z,743.6
2016-09-07T12:00:15.542Z,743.67
2016-09-07T12:01:15.539Z,743.58
2016-09-07T12:02:15.535Z,743.61
2016-09-07T12:03:15.532Z,743.56
2016-09-07T12:04:15.529Z,743.6
2016-09-07T12:05:15.528Z,743.61
2016-09-07T12:06:15.515Z,743.6
2016-09-07T12:07:15.521Z,743.62
2016-09-07T12:08:15.518Z,743.58
2016-09-07T12:09:15.516Z,743.6
2016-09-07T12:10:15.505Z,743.53
2016-09-07T12:11:15.509Z,743.56
2016-09-07T12:12:15.508Z,743.57
2016-09-07T12:13:15.503Z,743.58
2016-09-07T12:14:15.494Z,743.6
2016-09-07T12:15:15.492Z,743.59
2016-09-07T12:16:15.490Z,743.66
2016-09-07T12:17:15.494Z,743.61
2016-09-07T12:18:15.486Z,743.61
2016-09-07T12:19:15.491Z,743.63
2016-09-07T12:20:15.481Z,743.65
2016-09-07T12:21:15.485Z,743.64
2016-09-07T12:22:15.483Z,743.64
2016-09-07T12:23:15.473Z,743.62
2016-09-07T12:24:15.469Z,743.65
2016-09-07T12:25:15.466Z,743.61
2016-09-07T12:26:15.471Z,743.62
2016-09-07T12:27:15.463Z,743.6
2016-09-07T12:28:15.457Z,743.61
2016-09-07T12:29:15.462Z,743.62
2016-09-07T12:30:15.459Z,743.64
2016-09-07T12:31:15.456Z,743.58